PWSweather.com
Personal Weather Stations
Station Observations
719732
Ponferrada, PonferradaES 24411

PonferradaPonferradaES 24411

Lat: 42.5728, Lon: -6.6425

Elevation: 1676

Station Type: PCE-FWS 20 con garita Ambient Weather SRS100LX

www.meteo.spyfly.es

High Low Average
Temperature 83.1°F28.4°C 65.1°F18.4°C 73.0°F22.8°C
Dew Point 66.3°F19.1°C 58.8°F14.9°C 62.7°F17.1°C
Winds 13.6 mph 21.9 kmh Calm Calm 4.0 mph WSW6.4 kmh WSW
Wind Gusts 19.0 mph30.6 kmh 0.7 mph1.1 kmh 8.0 mph12.9 kmh
Humidity 90% 53% 71%
Pressure 30.11 in1019.6 mb 30.01 in1016.3 mb -
Precipitation 0.00 in0.0 mm - -
Hour Temp Dew Point Humidity Winds Wind Gusts Pressure Precip Precip Rate Daily Precip Total
12:00 AM 67.6°F19.8°C 63.0°F17.2°C 85% 1.6 mph WNW2.6 kmh WNW 7.6 mph12.2 kmh 30.11 in1019.6 mb 0.00 in0.0 mm 0.00 in0.0 mm 0.00 in0.0 mm
12:05 AM 67.3°F19.6°C 62.6°F17.0°C 85% 3.1 mph NW5.0 kmh NW 5.4 mph8.7 kmh 30.11 in1019.6 mb 0.00 in0.0 mm 0.00 in0.0 mm 0.00 in0.0 mm
12:10 AM 66.9°F19.4°C 62.6°F17.0°C 86% 1.6 mph NW2.6 kmh NW 4.5 mph7.2 kmh 30.11 in1019.6 mb 0.00 in0.0 mm 0.00 in0.0 mm 0.00 in0.0 mm
12:15 AM 66.4°F19.1°C 62.1°F16.7°C 86% 2.2 mph NW3.5 kmh NW 4.5 mph7.2 kmh 30.12 in1020.0 mb 0.00 in0.0 mm 0.00 in0.0 mm 0.00 in0.0 mm
12:20 AM 66.2°F19.0°C 62.2°F16.8°C 87% 3.8 mph NW6.1 kmh NW 4.5 mph7.2 kmh 30.11 in1019.6 mb 0.00 in0.0 mm 0.00 in0.0 mm 0.00 in0.0 mm
12:25 AM 66.0°F18.9°C 62.7°F17.1°C 89% 3.1 mph NW5.0 kmh NW 5.4 mph8.7 kmh 30.11 in1019.6 mb 0.00 in0.0 mm 0.00 in0.0 mm 0.00 in0.0 mm
12:30 AM 66.0°F18.9°C 62.7°F17.1°C 89% 1.6 mph NW2.6 kmh NW 5.4 mph8.7 kmh 30.11 in1019.6 mb 0.00 in0.0 mm 0.00 in0.0 mm 0.00 in0.0 mm
12:35 AM 66.0°F18.9°C 63.0°F17.2°C 90% 1.6 mph NW2.6 kmh NW 3.8 mph6.1 kmh 30.11 in1019.6 mb 0.00 in0.0 mm 0.00 in0.0 mm 0.00 in0.0 mm
12:40 AM 66.2°F19.0°C 62.9°F17.2°C 89% 2.2 mph WNW3.5 kmh WNW 3.8 mph6.1 kmh 30.11 in1019.6 mb 0.00 in0.0 mm 0.00 in0.0 mm 0.00 in0.0 mm
12:45 AM 66.2°F19.0°C 62.9°F17.2°C 89% 1.6 mph WNW2.6 kmh WNW 3.1 mph5.0 kmh 30.11 in1019.6 mb 0.00 in0.0 mm 0.00 in0.0 mm 0.00 in0.0 mm
12:50 AM 66.4°F19.1°C 63.1°F17.3°C 89% 0.7 mph WNW1.1 kmh WNW 3.1 mph5.0 kmh 30.11 in1019.6 mb 0.00 in0.0 mm 0.00 in0.0 mm 0.00 in0.0 mm
12:55 AM 66.4°F19.1°C 63.1°F17.3°C 89% 1.6 mph WNW2.6 kmh WNW 4.5 mph7.2 kmh 30.11 in1019.6 mb 0.00 in0.0 mm 0.00 in0.0 mm 0.00 in0.0 mm
01:00 AM 66.6°F19.2°C 63.2°F17.3°C 89% 2.2 mph WNW3.5 kmh WNW 4.5 mph7.2 kmh 30.11 in1019.6 mb 0.00 in0.0 mm 0.00 in0.0 mm 0.00 in0.0 mm
01:05 AM 66.6°F19.2°C 63.2°F17.3°C 89% 2.2 mph NW3.5 kmh NW 4.5 mph7.2 kmh 30.10 in1019.3 mb 0.00 in0.0 mm 0.00 in0.0 mm 0.00 in0.0 mm
01:10 AM 66.7°F19.3°C 63.1°F17.3°C 88% 2.2 mph NW3.5 kmh NW 4.5 mph7.2 kmh 30.11 in1019.6 mb 0.00 in0.0 mm 0.00 in0.0 mm 0.00 in0.0 mm
01:15 AM 66.7°F19.3°C 63.1°F17.3°C 88% 3.1 mph NW5.0 kmh NW 4.5 mph7.2 kmh 30.10 in1019.3 mb 0.00 in0.0 mm 0.00 in0.0 mm 0.00 in0.0 mm
01:20 AM 66.9°F19.4°C 62.9°F17.2°C 87% 2.2 mph W3.5 kmh W 6.0 mph9.7 kmh 30.10 in1019.3 mb 0.00 in0.0 mm 0.00 in0.0 mm 0.00 in0.0 mm
01:25 AM 66.9°F19.4°C 62.9°F17.2°C 87% 2.2 mph WNW3.5 kmh WNW 6.0 mph9.7 kmh 30.11 in1019.6 mb 0.00 in0.0 mm 0.00 in0.0 mm 0.00 in0.0 mm
01:30 AM 66.9°F19.4°C 62.9°F17.2°C 87% 1.6 mph NW2.6 kmh NW 5.4 mph8.7 kmh 30.11 in1019.6 mb 0.00 in0.0 mm 0.00 in0.0 mm 0.00 in0.0 mm
01:35 AM 66.9°F19.4°C 62.6°F17.0°C 86% 2.2 mph NW3.5 kmh NW 5.4 mph8.7 kmh 30.10 in1019.3 mb 0.00 in0.0 mm 0.00 in0.0 mm 0.00 in0.0 mm
01:40 AM 66.9°F19.4°C 62.6°F17.0°C 86% 3.1 mph WNW5.0 kmh WNW 5.4 mph8.7 kmh 30.10 in1019.3 mb 0.00 in0.0 mm 0.00 in0.0 mm 0.00 in0.0 mm
01:45 AM 66.9°F19.4°C 62.6°F17.0°C 86% 2.2 mph WNW3.5 kmh WNW 5.4 mph8.7 kmh 30.10 in1019.3 mb 0.00 in0.0 mm 0.00 in0.0 mm 0.00 in0.0 mm
01:50 AM 66.9°F19.4°C 62.6°F17.0°C 86% 3.8 mph W6.1 kmh W 5.4 mph8.7 kmh 30.10 in1019.3 mb 0.00 in0.0 mm 0.00 in0.0 mm 0.00 in0.0 mm
01:55 AM 66.9°F19.4°C 62.6°F17.0°C 86% 1.6 mph W2.6 kmh W 5.4 mph8.7 kmh 30.10 in1019.3 mb 0.00 in0.0 mm 0.00 in0.0 mm 0.00 in0.0 mm
02:00 AM 66.9°F19.4°C 62.6°F17.0°C 86% 2.2 mph W3.5 kmh W 5.4 mph8.7 kmh 30.10 in1019.3 mb 0.00 in0.0 mm 0.00 in0.0 mm 0.00 in0.0 mm
02:05 AM 66.9°F19.4°C 62.6°F17.0°C 86% 3.1 mph W5.0 kmh W 4.5 mph7.2 kmh 30.10 in1019.3 mb 0.00 in0.0 mm 0.00 in0.0 mm 0.00 in0.0 mm
02:10 AM 66.9°F19.4°C 62.6°F17.0°C 86% 1.6 mph W2.6 kmh W 4.5 mph7.2 kmh 30.09 in1019.0 mb 0.00 in0.0 mm 0.00 in0.0 mm 0.00 in0.0 mm
02:15 AM 66.7°F19.3°C 62.4°F16.9°C 86% 5.4 mph WNW8.7 kmh WNW 7.6 mph12.2 kmh 30.10 in1019.3 mb 0.00 in0.0 mm 0.00 in0.0 mm 0.00 in0.0 mm
02:20 AM 66.7°F19.3°C 62.4°F16.9°C 86% 3.1 mph WNW5.0 kmh WNW 7.6 mph12.2 kmh 30.10 in1019.3 mb 0.00 in0.0 mm 0.00 in0.0 mm 0.00 in0.0 mm
02:25 AM 66.6°F19.2°C 62.3°F16.8°C 86% 2.2 mph WNW3.5 kmh WNW 7.6 mph12.2 kmh 30.09 in1019.0 mb 0.00 in0.0 mm 0.00 in0.0 mm 0.00 in0.0 mm
02:30 AM 66.6°F19.2°C 62.3°F16.8°C 86% 1.6 mph NW2.6 kmh NW 4.5 mph7.2 kmh 30.09 in1019.0 mb 0.00 in0.0 mm 0.00 in0.0 mm 0.00 in0.0 mm
02:35 AM 66.4°F19.1°C 62.1°F16.7°C 86% 1.6 mph WNW2.6 kmh WNW 3.8 mph6.1 kmh 30.10 in1019.3 mb 0.00 in0.0 mm 0.00 in0.0 mm 0.00 in0.0 mm
02:40 AM 66.4°F19.1°C 62.4°F16.9°C 87% 0.7 mph W1.1 kmh W 3.1 mph5.0 kmh 30.09 in1019.0 mb 0.00 in0.0 mm 0.00 in0.0 mm 0.00 in0.0 mm
02:45 AM 66.4°F19.1°C 62.4°F16.9°C 87% 2.2 mph W3.5 kmh W 3.1 mph5.0 kmh 30.09 in1019.0 mb 0.00 in0.0 mm 0.00 in0.0 mm 0.00 in0.0 mm
02:50 AM 66.4°F19.1°C 62.4°F16.9°C 87% 2.2 mph W3.5 kmh W 3.1 mph5.0 kmh 30.09 in1019.0 mb 0.00 in0.0 mm 0.00 in0.0 mm 0.00 in0.0 mm
02:55 AM 66.2°F19.0°C 62.2°F16.8°C 87% 1.6 mph W2.6 kmh W 3.8 mph6.1 kmh 30.09 in1019.0 mb 0.00 in0.0 mm 0.00 in0.0 mm 0.00 in0.0 mm
03:00 AM 66.2°F19.0°C 62.6°F17.0°C 88% Calm Calm 3.8 mph6.1 kmh 30.09 in1019.0 mb 0.00 in0.0 mm 0.00 in0.0 mm 0.00 in0.0 mm
03:05 AM 66.2°F19.0°C 62.6°F17.0°C 88% 0.7 mph NW1.1 kmh NW 3.1 mph5.0 kmh 30.09 in1019.0 mb 0.00 in0.0 mm 0.00 in0.0 mm 0.00 in0.0 mm
03:10 AM 66.2°F19.0°C 62.6°F17.0°C 88% Calm Calm 2.2 mph3.5 kmh 30.09 in1019.0 mb 0.00 in0.0 mm 0.00 in0.0 mm 0.00 in0.0 mm
03:15 AM 66.0°F18.9°C 62.7°F17.1°C 89% 0.7 mph WNW1.1 kmh WNW 2.2 mph3.5 kmh 30.09 in1019.0 mb 0.00 in0.0 mm 0.00 in0.0 mm 0.00 in0.0 mm
03:20 AM 66.0°F18.9°C 62.7°F17.1°C 89% Calm Calm 2.2 mph3.5 kmh 30.09 in1019.0 mb 0.00 in0.0 mm 0.00 in0.0 mm 0.00 in0.0 mm
03:25 AM 66.0°F18.9°C 62.7°F17.1°C 89% 0.7 mph WSW1.1 kmh WSW 2.2 mph3.5 kmh 30.08 in1018.6 mb 0.00 in0.0 mm 0.00 in0.0 mm 0.00 in0.0 mm
03:30 AM 66.0°F18.9°C 62.7°F17.1°C 89% 0.7 mph W1.1 kmh W 3.1 mph5.0 kmh 30.08 in1018.6 mb 0.00 in0.0 mm 0.00 in0.0 mm 0.00 in0.0 mm
03:35 AM 66.0°F18.9°C 62.7°F17.1°C 89% 0.7 mph W1.1 kmh W 3.1 mph5.0 kmh 30.08 in1018.6 mb 0.00 in0.0 mm 0.00 in0.0 mm 0.00 in0.0 mm
03:40 AM 66.0°F18.9°C 62.7°F17.1°C 89% 2.2 mph W3.5 kmh W 3.8 mph6.1 kmh 30.08 in1018.6 mb 0.00 in0.0 mm 0.00 in0.0 mm 0.00 in0.0 mm
03:45 AM 66.0°F18.9°C 63.0°F17.2°C 90% 1.6 mph WSW2.6 kmh WSW 3.8 mph6.1 kmh 30.08 in1018.6 mb 0.00 in0.0 mm 0.00 in0.0 mm 0.00 in0.0 mm
03:50 AM 66.0°F18.9°C 63.0°F17.2°C 90% 0.7 mph WSW1.1 kmh WSW 3.1 mph5.0 kmh 30.09 in1019.0 mb 0.00 in0.0 mm 0.00 in0.0 mm 0.00 in0.0 mm
03:55 AM 66.0°F18.9°C 62.7°F17.1°C 89% 1.6 mph WSW2.6 kmh WSW 3.1 mph5.0 kmh 30.08 in1018.6 mb 0.00 in0.0 mm 0.00 in0.0 mm 0.00 in0.0 mm
04:00 AM 66.0°F18.9°C 62.7°F17.1°C 89% 0.7 mph WSW1.1 kmh WSW 3.1 mph5.0 kmh 30.08 in1018.6 mb 0.00 in0.0 mm 0.00 in0.0 mm 0.00 in0.0 mm
04:05 AM 66.0°F18.9°C 62.7°F17.1°C 89% 0.7 mph WSW1.1 kmh WSW 3.1 mph5.0 kmh 30.09 in1019.0 mb 0.00 in0.0 mm 0.00 in0.0 mm 0.00 in0.0 mm
04:10 AM 66.0°F18.9°C 62.4°F16.9°C 88% 1.6 mph WSW2.6 kmh WSW 3.1 mph5.0 kmh 30.08 in1018.6 mb 0.00 in0.0 mm 0.00 in0.0 mm 0.00 in0.0 mm
04:15 AM 66.0°F18.9°C 62.4°F16.9°C 88% 2.2 mph WSW3.5 kmh WSW 3.8 mph6.1 kmh 30.08 in1018.6 mb 0.00 in0.0 mm 0.00 in0.0 mm 0.00 in0.0 mm
04:20 AM 66.0°F18.9°C 62.4°F16.9°C 88% 1.6 mph WSW2.6 kmh WSW 3.8 mph6.1 kmh 30.08 in1018.6 mb 0.00 in0.0 mm 0.00 in0.0 mm 0.00 in0.0 mm
04:25 AM 66.0°F18.9°C 62.4°F16.9°C 88% 2.2 mph SW3.5 kmh SW 3.8 mph6.1 kmh 30.08 in1018.6 mb 0.00 in0.0 mm 0.00 in0.0 mm 0.00 in0.0 mm
04:30 AM 66.0°F18.9°C 62.4°F16.9°C 88% 0.7 mph SW1.1 kmh SW 4.5 mph7.2 kmh 30.08 in1018.6 mb 0.00 in0.0 mm 0.00 in0.0 mm 0.00 in0.0 mm
04:35 AM 66.2°F19.0°C 62.2°F16.8°C 87% 3.1 mph SW5.0 kmh SW 4.5 mph7.2 kmh 30.08 in1018.6 mb 0.00 in0.0 mm 0.00 in0.0 mm 0.00 in0.0 mm
04:40 AM 66.2°F19.0°C 61.9°F16.6°C 86% 1.6 mph SW2.6 kmh SW 4.5 mph7.2 kmh 30.08 in1018.6 mb 0.00 in0.0 mm 0.00 in0.0 mm 0.00 in0.0 mm
04:45 AM 66.2°F19.0°C 61.9°F16.6°C 86% 1.6 mph SW2.6 kmh SW 4.5 mph7.2 kmh 30.09 in1019.0 mb 0.00 in0.0 mm 0.00 in0.0 mm 0.00 in0.0 mm
04:50 AM 66.0°F18.9°C 62.1°F16.7°C 87% Calm Calm 4.5 mph7.2 kmh 30.08 in1018.6 mb 0.00 in0.0 mm 0.00 in0.0 mm 0.00 in0.0 mm
04:55 AM 66.0°F18.9°C 62.1°F16.7°C 87% 0.7 mph SW1.1 kmh SW 4.5 mph7.2 kmh 30.09 in1019.0 mb 0.00 in0.0 mm 0.00 in0.0 mm 0.00 in0.0 mm
05:00 AM 66.0°F18.9°C 61.7°F16.5°C 86% 0.7 mph SW1.1 kmh SW 2.2 mph3.5 kmh 30.09 in1019.0 mb 0.00 in0.0 mm 0.00 in0.0 mm 0.00 in0.0 mm
05:05 AM 66.0°F18.9°C 61.7°F16.5°C 86% Calm Calm 3.1 mph5.0 kmh 30.09 in1019.0 mb 0.00 in0.0 mm 0.00 in0.0 mm 0.00 in0.0 mm
05:10 AM 66.0°F18.9°C 61.7°F16.5°C 86% 0.7 mph SW1.1 kmh SW 3.8 mph6.1 kmh 30.09 in1019.0 mb 0.00 in0.0 mm 0.00 in0.0 mm 0.00 in0.0 mm
05:15 AM 66.0°F18.9°C 61.7°F16.5°C 86% 2.2 mph WSW3.5 kmh WSW 3.8 mph6.1 kmh 30.09 in1019.0 mb 0.00 in0.0 mm 0.00 in0.0 mm 0.00 in0.0 mm
05:20 AM 66.0°F18.9°C 61.7°F16.5°C 86% 2.2 mph WSW3.5 kmh WSW 3.8 mph6.1 kmh 30.09 in1019.0 mb 0.00 in0.0 mm 0.00 in0.0 mm 0.00 in0.0 mm
05:25 AM 66.0°F18.9°C 61.7°F16.5°C 86% 0.7 mph WSW1.1 kmh WSW 3.8 mph6.1 kmh 30.09 in1019.0 mb 0.00 in0.0 mm 0.00 in0.0 mm 0.00 in0.0 mm
05:30 AM 66.0°F18.9°C 61.7°F16.5°C 86% 2.2 mph W3.5 kmh W 3.8 mph6.1 kmh 30.09 in1019.0 mb 0.00 in0.0 mm 0.00 in0.0 mm 0.00 in0.0 mm
05:35 AM 65.8°F18.8°C 61.6°F16.4°C 86% 1.6 mph W2.6 kmh W 3.8 mph6.1 kmh 30.09 in1019.0 mb 0.00 in0.0 mm 0.00 in0.0 mm 0.00 in0.0 mm
05:40 AM 65.8°F18.8°C 61.6°F16.4°C 86% 1.6 mph W2.6 kmh W 3.8 mph6.1 kmh 30.09 in1019.0 mb 0.00 in0.0 mm 0.00 in0.0 mm 0.00 in0.0 mm
05:45 AM 65.8°F18.8°C 61.6°F16.4°C 86% 1.6 mph W2.6 kmh W 3.1 mph5.0 kmh 30.09 in1019.0 mb 0.00 in0.0 mm 0.00 in0.0 mm 0.00 in0.0 mm
05:50 AM 65.7°F18.7°C 61.4°F16.3°C 86% 0.7 mph W1.1 kmh W 3.1 mph5.0 kmh 30.09 in1019.0 mb 0.00 in0.0 mm 0.00 in0.0 mm 0.00 in0.0 mm
05:55 AM 65.7°F18.7°C 61.4°F16.3°C 86% 0.7 mph WNW1.1 kmh WNW 2.2 mph3.5 kmh 30.09 in1019.0 mb 0.00 in0.0 mm 0.00 in0.0 mm 0.00 in0.0 mm
06:00 AM 65.5°F18.6°C 61.2°F16.2°C 86% 0.7 mph WNW1.1 kmh WNW 2.2 mph3.5 kmh 30.09 in1019.0 mb 0.00 in0.0 mm 0.00 in0.0 mm 0.00 in0.0 mm
06:05 AM 65.5°F18.6°C 61.2°F16.2°C 86% Calm Calm 1.6 mph2.6 kmh 30.09 in1019.0 mb 0.00 in0.0 mm 0.00 in0.0 mm 0.00 in0.0 mm
06:10 AM 65.5°F18.6°C 61.2°F16.2°C 86% Calm Calm 1.6 mph2.6 kmh 30.10 in1019.3 mb 0.00 in0.0 mm 0.00 in0.0 mm 0.00 in0.0 mm
06:15 AM 65.5°F18.6°C 61.2°F16.2°C 86% Calm Calm 1.6 mph2.6 kmh 30.09 in1019.0 mb 0.00 in0.0 mm 0.00 in0.0 mm 0.00 in0.0 mm
06:20 AM 65.5°F18.6°C 61.2°F16.2°C 86% Calm Calm 0.7 mph1.1 kmh 30.10 in1019.3 mb 0.00 in0.0 mm 0.00 in0.0 mm 0.00 in0.0 mm
06:25 AM 65.5°F18.6°C 61.2°F16.2°C 86% Calm Calm 0.7 mph1.1 kmh 30.10 in1019.3 mb 0.00 in0.0 mm 0.00 in0.0 mm 0.00 in0.0 mm
06:30 AM 65.7°F18.7°C 61.4°F16.3°C 86% Calm Calm 1.6 mph2.6 kmh 30.10 in1019.3 mb 0.00 in0.0 mm 0.00 in0.0 mm 0.00 in0.0 mm
06:35 AM 65.7°F18.7°C 61.4°F16.3°C 86% Calm Calm 1.6 mph2.6 kmh 30.10 in1019.3 mb 0.00 in0.0 mm 0.00 in0.0 mm 0.00 in0.0 mm
06:40 AM 65.7°F18.7°C 61.4°F16.3°C 86% 0.7 mph SW1.1 kmh SW 1.6 mph2.6 kmh 30.10 in1019.3 mb 0.00 in0.0 mm 0.00 in0.0 mm 0.00 in0.0 mm
06:45 AM 65.7°F18.7°C 61.4°F16.3°C 86% 0.7 mph SSW1.1 kmh SSW 2.2 mph3.5 kmh 30.10 in1019.3 mb 0.00 in0.0 mm 0.00 in0.0 mm 0.00 in0.0 mm
06:50 AM 65.8°F18.8°C 61.6°F16.4°C 86% 1.6 mph S2.6 kmh S 2.2 mph3.5 kmh 30.10 in1019.3 mb 0.00 in0.0 mm 0.00 in0.0 mm 0.00 in0.0 mm
06:55 AM 66.0°F18.9°C 61.7°F16.5°C 86% 0.7 mph SE1.1 kmh SE 2.2 mph3.5 kmh 30.10 in1019.3 mb 0.00 in0.0 mm 0.00 in0.0 mm 0.00 in0.0 mm
07:00 AM 66.2°F19.0°C 61.6°F16.4°C 85% 2.2 mph SE3.5 kmh SE 3.1 mph5.0 kmh 30.10 in1019.3 mb 0.00 in0.0 mm 0.00 in0.0 mm 0.00 in0.0 mm
07:05 AM 66.4°F19.1°C 61.4°F16.3°C 84% 1.6 mph SSE2.6 kmh SSE 3.1 mph5.0 kmh 30.10 in1019.3 mb 0.00 in0.0 mm 0.00 in0.0 mm 0.00 in0.0 mm
07:10 AM 66.4°F19.1°C 61.4°F16.3°C 84% 0.7 mph S1.1 kmh S 3.1 mph5.0 kmh 30.10 in1019.3 mb 0.00 in0.0 mm 0.00 in0.0 mm 0.00 in0.0 mm
07:15 AM 66.6°F19.2°C 61.6°F16.4°C 84% 1.6 mph S2.6 kmh S 3.8 mph6.1 kmh 30.10 in1019.3 mb 0.00 in0.0 mm 0.00 in0.0 mm 0.00 in0.0 mm
07:20 AM 66.7°F19.3°C 61.8°F16.6°C 84% 1.6 mph SSW2.6 kmh SSW 3.8 mph6.1 kmh 30.10 in1019.3 mb 0.00 in0.0 mm 0.00 in0.0 mm 0.00 in0.0 mm
07:25 AM 66.7°F19.3°C 61.8°F16.6°C 84% 0.7 mph SW1.1 kmh SW 3.1 mph5.0 kmh 30.11 in1019.6 mb 0.00 in0.0 mm 0.00 in0.0 mm 0.00 in0.0 mm
07:30 AM 66.9°F19.4°C 61.6°F16.4°C 83% 0.7 mph SW1.1 kmh SW 3.8 mph6.1 kmh 30.10 in1019.3 mb 0.00 in0.0 mm 0.00 in0.0 mm 0.00 in0.0 mm
07:35 AM 67.1°F19.5°C 61.8°F16.6°C 83% 0.7 mph W1.1 kmh W 3.8 mph6.1 kmh 30.10 in1019.3 mb 0.00 in0.0 mm 0.00 in0.0 mm 0.00 in0.0 mm
07:40 AM 67.1°F19.5°C 61.8°F16.6°C 83% 1.6 mph W2.6 kmh W 3.8 mph6.1 kmh 30.10 in1019.3 mb 0.00 in0.0 mm 0.00 in0.0 mm 0.00 in0.0 mm
07:45 AM 67.1°F19.5°C 61.8°F16.6°C 83% 0.7 mph W1.1 kmh W 3.8 mph6.1 kmh 30.10 in1019.3 mb 0.00 in0.0 mm 0.00 in0.0 mm 0.00 in0.0 mm
07:50 AM 67.3°F19.6°C 62.3°F16.8°C 84% Calm Calm 3.1 mph5.0 kmh 30.10 in1019.3 mb 0.00 in0.0 mm 0.00 in0.0 mm 0.00 in0.0 mm
07:55 AM 67.5°F19.7°C 62.1°F16.7°C 83% 1.6 mph WNW2.6 kmh WNW 3.1 mph5.0 kmh 30.10 in1019.3 mb 0.00 in0.0 mm 0.00 in0.0 mm 0.00 in0.0 mm
08:00 AM 67.6°F19.8°C 62.3°F16.8°C 83% Calm Calm 2.2 mph3.5 kmh 30.11 in1019.6 mb 0.00 in0.0 mm 0.00 in0.0 mm 0.00 in0.0 mm
08:05 AM 67.8°F19.9°C 62.5°F16.9°C 83% 0.7 mph WSW1.1 kmh WSW 2.2 mph3.5 kmh 30.10 in1019.3 mb 0.00 in0.0 mm 0.00 in0.0 mm 0.00 in0.0 mm
08:10 AM 68.0°F20.0°C 62.0°F16.7°C 81% 1.6 mph WSW2.6 kmh WSW 2.2 mph3.5 kmh 30.10 in1019.3 mb 0.00 in0.0 mm 0.00 in0.0 mm 0.00 in0.0 mm
08:15 AM 68.0°F20.0°C 62.3°F16.8°C 82% 2.2 mph W3.5 kmh W 3.8 mph6.1 kmh 30.10 in1019.3 mb 0.00 in0.0 mm 0.00 in0.0 mm 0.00 in0.0 mm
08:20 AM 68.0°F20.0°C 62.0°F16.7°C 81% 0.7 mph WSW1.1 kmh WSW 3.8 mph6.1 kmh 30.10 in1019.3 mb 0.00 in0.0 mm 0.00 in0.0 mm 0.00 in0.0 mm
08:25 AM 68.0°F20.0°C 62.0°F16.7°C 81% 0.7 mph SW1.1 kmh SW 3.1 mph5.0 kmh 30.10 in1019.3 mb 0.00 in0.0 mm 0.00 in0.0 mm 0.00 in0.0 mm
08:30 AM 68.2°F20.1°C 62.2°F16.8°C 81% 0.7 mph WSW1.1 kmh WSW 2.2 mph3.5 kmh 30.11 in1019.6 mb 0.00 in0.0 mm 0.00 in0.0 mm 0.00 in0.0 mm
08:35 AM 68.2°F20.1°C 62.2°F16.8°C 81% 1.6 mph SW2.6 kmh SW 3.8 mph6.1 kmh 30.11 in1019.6 mb 0.00 in0.0 mm 0.00 in0.0 mm 0.00 in0.0 mm
08:40 AM 68.2°F20.1°C 62.2°F16.8°C 81% 0.7 mph SW1.1 kmh SW 3.8 mph6.1 kmh 30.11 in1019.6 mb 0.00 in0.0 mm 0.00 in0.0 mm 0.00 in0.0 mm
08:45 AM 68.4°F20.2°C 62.3°F16.8°C 81% 1.6 mph WSW2.6 kmh WSW 3.8 mph6.1 kmh 30.11 in1019.6 mb 0.00 in0.0 mm 0.00 in0.0 mm 0.00 in0.0 mm
08:50 AM 68.4°F20.2°C 62.3°F16.8°C 81% 2.2 mph SW3.5 kmh SW 4.5 mph7.2 kmh 30.11 in1019.6 mb 0.00 in0.0 mm 0.00 in0.0 mm 0.00 in0.0 mm
08:55 AM 68.5°F20.3°C 62.5°F16.9°C 81% 0.7 mph SW1.1 kmh SW 4.5 mph7.2 kmh 30.11 in1019.6 mb 0.00 in0.0 mm 0.00 in0.0 mm 0.00 in0.0 mm
09:00 AM 68.9°F20.5°C 63.2°F17.3°C 82% 1.6 mph SW2.6 kmh SW 4.5 mph7.2 kmh 30.11 in1019.6 mb 0.00 in0.0 mm 0.00 in0.0 mm 0.00 in0.0 mm
09:05 AM 69.4°F20.8°C 63.7°F17.6°C 82% 1.6 mph WSW2.6 kmh WSW 6.0 mph9.7 kmh 30.11 in1019.6 mb 0.00 in0.0 mm 0.00 in0.0 mm 0.00 in0.0 mm
09:10 AM 70.5°F21.4°C 63.7°F17.6°C 79% 2.2 mph SW3.5 kmh SW 6.0 mph9.7 kmh 30.11 in1019.6 mb 0.00 in0.0 mm 0.00 in0.0 mm 0.00 in0.0 mm
09:15 AM 71.1°F21.7°C 63.5°F17.5°C 77% 1.6 mph SSW2.6 kmh SSW 6.0 mph9.7 kmh 30.11 in1019.6 mb 0.00 in0.0 mm 0.00 in0.0 mm 0.00 in0.0 mm
09:20 AM 71.2°F21.8°C 63.3°F17.4°C 76% 1.6 mph WSW2.6 kmh WSW 4.5 mph7.2 kmh 30.11 in1019.6 mb 0.00 in0.0 mm 0.00 in0.0 mm 0.00 in0.0 mm
09:25 AM 71.1°F21.7°C 63.1°F17.3°C 76% 2.2 mph WSW3.5 kmh WSW 4.5 mph7.2 kmh 30.11 in1019.6 mb 0.00 in0.0 mm 0.00 in0.0 mm 0.00 in0.0 mm
09:30 AM 71.2°F21.8°C 62.9°F17.2°C 75% 3.1 mph WSW5.0 kmh WSW 5.4 mph8.7 kmh 30.10 in1019.3 mb 0.00 in0.0 mm 0.00 in0.0 mm 0.00 in0.0 mm
09:35 AM 71.1°F21.7°C 62.8°F17.1°C 75% 2.2 mph WSW3.5 kmh WSW 5.4 mph8.7 kmh 30.10 in1019.3 mb 0.00 in0.0 mm 0.00 in0.0 mm 0.00 in0.0 mm
09:40 AM 71.6°F22.0°C 62.9°F17.2°C 74% 0.7 mph SW1.1 kmh SW 5.4 mph8.7 kmh 30.10 in1019.3 mb 0.00 in0.0 mm 0.00 in0.0 mm 0.00 in0.0 mm
09:45 AM 72.1°F22.3°C 63.0°F17.2°C 73% Calm Calm 4.5 mph7.2 kmh 30.10 in1019.3 mb 0.00 in0.0 mm 0.00 in0.0 mm 0.00 in0.0 mm
09:50 AM 72.9°F22.7°C 63.7°F17.6°C 73% 3.8 mph W6.1 kmh W 6.0 mph9.7 kmh 30.10 in1019.3 mb 0.00 in0.0 mm 0.00 in0.0 mm 0.00 in0.0 mm
09:55 AM 72.9°F22.7°C 63.7°F17.6°C 73% 1.6 mph W2.6 kmh W 6.0 mph9.7 kmh 30.09 in1019.0 mb 0.00 in0.0 mm 0.00 in0.0 mm 0.00 in0.0 mm
10:00 AM 73.2°F22.9°C 64.1°F17.8°C 73% 2.2 mph WNW3.5 kmh WNW 6.0 mph9.7 kmh 30.09 in1019.0 mb 0.00 in0.0 mm 0.00 in0.0 mm 0.00 in0.0 mm
10:05 AM 73.2°F22.9°C 63.7°F17.6°C 72% 3.8 mph WSW6.1 kmh WSW 5.4 mph8.7 kmh 30.09 in1019.0 mb 0.00 in0.0 mm 0.00 in0.0 mm 0.00 in0.0 mm
10:10 AM 73.4°F23.0°C 63.9°F17.7°C 72% 4.5 mph WSW7.2 kmh WSW 6.0 mph9.7 kmh 30.09 in1019.0 mb 0.00 in0.0 mm 0.00 in0.0 mm 0.00 in0.0 mm
10:15 AM 73.6°F23.1°C 63.6°F17.6°C 71% 3.8 mph WSW6.1 kmh WSW 6.0 mph9.7 kmh 30.09 in1019.0 mb 0.00 in0.0 mm 0.00 in0.0 mm 0.00 in0.0 mm
10:20 AM 73.9°F23.3°C 63.6°F17.6°C 70% 1.6 mph W2.6 kmh W 5.4 mph8.7 kmh 30.09 in1019.0 mb 0.00 in0.0 mm 0.00 in0.0 mm 0.00 in0.0 mm
10:25 AM 74.8°F23.8°C 64.8°F18.2°C 71% 6.0 mph W9.7 kmh W 8.3 mph13.4 kmh 30.09 in1019.0 mb 0.00 in0.0 mm 0.00 in0.0 mm 0.00 in0.0 mm
10:30 AM 75.6°F24.2°C 64.7°F18.2°C 69% 3.8 mph W6.1 kmh W 8.3 mph13.4 kmh 30.09 in1019.0 mb 0.00 in0.0 mm 0.00 in0.0 mm 0.00 in0.0 mm
10:35 AM 75.7°F24.3°C 64.5°F18.1°C 68% 2.2 mph W3.5 kmh W 7.6 mph12.2 kmh 30.09 in1019.0 mb 0.00 in0.0 mm 0.00 in0.0 mm 0.00 in0.0 mm
10:40 AM 74.7°F23.7°C 63.4°F17.4°C 68% 2.2 mph WSW3.5 kmh WSW 6.9 mph11.1 kmh 30.09 in1019.0 mb 0.00 in0.0 mm 0.00 in0.0 mm 0.00 in0.0 mm
10:45 AM 74.3°F23.5°C 63.1°F17.3°C 68% 3.1 mph SSW5.0 kmh SSW 6.9 mph11.1 kmh 30.09 in1019.0 mb 0.00 in0.0 mm 0.00 in0.0 mm 0.00 in0.0 mm
10:50 AM 75.4°F24.1°C 64.1°F17.8°C 68% 2.2 mph SW3.5 kmh SW 8.3 mph13.4 kmh 30.09 in1019.0 mb 0.00 in0.0 mm 0.00 in0.0 mm 0.00 in0.0 mm
10:55 AM 76.1°F24.5°C 64.4°F18.0°C 67% 5.4 mph SW8.7 kmh SW 8.3 mph13.4 kmh 30.09 in1019.0 mb 0.00 in0.0 mm 0.00 in0.0 mm 0.00 in0.0 mm
11:00 AM 76.6°F24.8°C 64.0°F17.8°C 65% 3.8 mph SW6.1 kmh SW 9.2 mph14.8 kmh 30.09 in1019.0 mb 0.00 in0.0 mm 0.00 in0.0 mm 0.00 in0.0 mm
11:05 AM 77.0°F25.0°C 64.4°F18.0°C 65% 4.5 mph WSW7.2 kmh WSW 9.2 mph14.8 kmh 30.09 in1019.0 mb 0.00 in0.0 mm 0.00 in0.0 mm 0.00 in0.0 mm
11:10 AM 77.2°F25.1°C 64.1°F17.8°C 64% 3.8 mph W6.1 kmh W 8.3 mph13.4 kmh 30.09 in1019.0 mb 0.00 in0.0 mm 0.00 in0.0 mm 0.00 in0.0 mm
11:15 AM 77.4°F25.2°C 64.3°F17.9°C 64% 3.8 mph WSW6.1 kmh WSW 8.3 mph13.4 kmh 30.09 in1019.0 mb 0.00 in0.0 mm 0.00 in0.0 mm 0.00 in0.0 mm
11:20 AM 77.7°F25.4°C 64.6°F18.1°C 64% 2.2 mph SW3.5 kmh SW 6.9 mph11.1 kmh 30.08 in1018.6 mb 0.00 in0.0 mm 0.00 in0.0 mm 0.00 in0.0 mm
11:25 AM 78.3°F25.7°C 65.1°F18.4°C 64% 2.2 mph SW3.5 kmh SW 6.0 mph9.7 kmh 30.08 in1018.6 mb 0.00 in0.0 mm 0.00 in0.0 mm 0.00 in0.0 mm
11:30 AM 78.3°F25.7°C 64.7°F18.2°C 63% 5.4 mph WSW8.7 kmh WSW 8.3 mph13.4 kmh 30.08 in1018.6 mb 0.00 in0.0 mm 0.00 in0.0 mm 0.00 in0.0 mm
11:35 AM 78.3°F25.7°C 64.7°F18.2°C 63% 4.5 mph SW7.2 kmh SW 8.3 mph13.4 kmh 30.08 in1018.6 mb 0.00 in0.0 mm 0.00 in0.0 mm 0.00 in0.0 mm
11:40 AM 78.4°F25.8°C 64.8°F18.2°C 63% 3.8 mph SW6.1 kmh SW 8.3 mph13.4 kmh 30.08 in1018.6 mb 0.00 in0.0 mm 0.00 in0.0 mm 0.00 in0.0 mm
11:45 AM 78.6°F25.9°C 65.0°F18.3°C 63% 4.5 mph WSW7.2 kmh WSW 8.3 mph13.4 kmh 30.08 in1018.6 mb 0.00 in0.0 mm 0.00 in0.0 mm 0.00 in0.0 mm
11:50 AM 78.4°F25.8°C 65.3°F18.5°C 64% 3.1 mph WSW5.0 kmh WSW 11.4 mph18.3 kmh 30.08 in1018.6 mb 0.00 in0.0 mm 0.00 in0.0 mm 0.00 in0.0 mm
11:55 AM 78.8°F26.0°C 64.7°F18.2°C 62% 3.8 mph WSW6.1 kmh WSW 11.4 mph18.3 kmh 30.08 in1018.6 mb 0.00 in0.0 mm 0.00 in0.0 mm 0.00 in0.0 mm
12:00 PM 79.0°F26.1°C 64.9°F18.3°C 62% 3.8 mph WSW6.1 kmh WSW 9.2 mph14.8 kmh 30.08 in1018.6 mb 0.00 in0.0 mm 0.00 in0.0 mm 0.00 in0.0 mm
12:05 PM 79.2°F26.2°C 65.1°F18.4°C 62% 3.1 mph WSW5.0 kmh WSW 6.9 mph11.1 kmh 30.08 in1018.6 mb 0.00 in0.0 mm 0.00 in0.0 mm 0.00 in0.0 mm
12:10 PM 79.7°F26.5°C 65.6°F18.7°C 62% 5.4 mph W8.7 kmh W 8.3 mph13.4 kmh 30.07 in1018.3 mb 0.00 in0.0 mm 0.00 in0.0 mm 0.00 in0.0 mm
12:15 PM 79.5°F26.4°C 65.4°F18.6°C 62% 3.1 mph W5.0 kmh W 8.3 mph13.4 kmh 30.07 in1018.3 mb 0.00 in0.0 mm 0.00 in0.0 mm 0.00 in0.0 mm
12:20 PM 79.5°F26.4°C 65.4°F18.6°C 62% 6.0 mph W9.7 kmh W 8.3 mph13.4 kmh 30.07 in1018.3 mb 0.00 in0.0 mm 0.00 in0.0 mm 0.00 in0.0 mm
12:25 PM 79.5°F26.4°C 65.4°F18.6°C 62% 3.8 mph W6.1 kmh W 8.3 mph13.4 kmh 30.07 in1018.3 mb 0.00 in0.0 mm 0.00 in0.0 mm 0.00 in0.0 mm
12:30 PM 79.5°F26.4°C 65.4°F18.6°C 62% 4.5 mph WSW7.2 kmh WSW 9.2 mph14.8 kmh 30.07 in1018.3 mb 0.00 in0.0 mm 0.00 in0.0 mm 0.00 in0.0 mm
12:35 PM 79.7°F26.5°C 65.6°F18.7°C 62% 4.5 mph WSW7.2 kmh WSW 9.2 mph14.8 kmh 30.07 in1018.3 mb 0.00 in0.0 mm 0.00 in0.0 mm 0.00 in0.0 mm
12:40 PM 80.1°F26.7°C 65.9°F18.8°C 62% 3.1 mph WSW5.0 kmh WSW 9.2 mph14.8 kmh 30.07 in1018.3 mb 0.00 in0.0 mm 0.00 in0.0 mm 0.00 in0.0 mm
12:45 PM 80.4°F26.9°C 66.3°F19.1°C 62% 1.6 mph W2.6 kmh W 10.7 mph17.2 kmh 30.07 in1018.3 mb 0.00 in0.0 mm 0.00 in0.0 mm 0.00 in0.0 mm
12:50 PM 80.6°F27.0°C 65.0°F18.3°C 59% 3.8 mph W6.1 kmh W 10.7 mph17.2 kmh 30.07 in1018.3 mb 0.00 in0.0 mm 0.00 in0.0 mm 0.00 in0.0 mm
12:55 PM 81.0°F27.2°C 65.8°F18.8°C 60% 2.2 mph W3.5 kmh W 10.7 mph17.2 kmh 30.06 in1017.9 mb 0.00 in0.0 mm 0.00 in0.0 mm 0.00 in0.0 mm
01:00 PM 81.1°F27.3°C 66.0°F18.9°C 60% 7.6 mph WNW12.2 kmh WNW 10.7 mph17.2 kmh 30.07 in1018.3 mb 0.00 in0.0 mm 0.00 in0.0 mm 0.00 in0.0 mm
01:05 PM 80.8°F27.1°C 65.2°F18.4°C 59% 6.0 mph WNW9.7 kmh WNW 10.7 mph17.2 kmh 30.07 in1018.3 mb 0.00 in0.0 mm 0.00 in0.0 mm 0.00 in0.0 mm
01:10 PM 80.6°F27.0°C 65.5°F18.6°C 60% 6.9 mph W11.1 kmh W 11.4 mph18.3 kmh 30.07 in1018.3 mb 0.00 in0.0 mm 0.00 in0.0 mm 0.00 in0.0 mm
01:15 PM 80.6°F27.0°C 64.5°F18.1°C 58% 3.8 mph WNW6.1 kmh WNW 11.4 mph18.3 kmh 30.07 in1018.3 mb 0.00 in0.0 mm 0.00 in0.0 mm 0.00 in0.0 mm
01:20 PM 80.6°F27.0°C 66.0°F18.9°C 61% 4.5 mph W7.2 kmh W 10.7 mph17.2 kmh 30.06 in1017.9 mb 0.00 in0.0 mm 0.00 in0.0 mm 0.00 in0.0 mm
01:25 PM 81.0°F27.2°C 65.3°F18.5°C 59% 3.1 mph WNW5.0 kmh WNW 13.0 mph20.9 kmh 30.05 in1017.6 mb 0.00 in0.0 mm 0.00 in0.0 mm 0.00 in0.0 mm
01:30 PM 81.1°F27.3°C 65.5°F18.6°C 59% 4.5 mph WNW7.2 kmh WNW 13.0 mph20.9 kmh 30.06 in1017.9 mb 0.00 in0.0 mm 0.00 in0.0 mm 0.00 in0.0 mm
01:35 PM 81.3°F27.4°C 65.2°F18.4°C 58% 5.4 mph W8.7 kmh W 10.7 mph17.2 kmh 30.05 in1017.6 mb 0.00 in0.0 mm 0.00 in0.0 mm 0.00 in0.0 mm
01:40 PM 81.5°F27.5°C 65.8°F18.8°C 59% 9.2 mph NW14.8 kmh NW 13.0 mph20.9 kmh 30.06 in1017.9 mb 0.00 in0.0 mm 0.00 in0.0 mm 0.00 in0.0 mm
01:45 PM 81.5°F27.5°C 65.3°F18.5°C 58% 7.6 mph WNW12.2 kmh WNW 13.0 mph20.9 kmh 30.05 in1017.6 mb 0.00 in0.0 mm 0.00 in0.0 mm 0.00 in0.0 mm
01:50 PM 81.5°F27.5°C 65.8°F18.8°C 59% 5.4 mph WSW8.7 kmh WSW 13.0 mph20.9 kmh 30.05 in1017.6 mb 0.00 in0.0 mm 0.00 in0.0 mm 0.00 in0.0 mm
01:55 PM 81.5°F27.5°C 65.8°F18.8°C 59% 4.5 mph W7.2 kmh W 10.7 mph17.2 kmh 30.05 in1017.6 mb 0.00 in0.0 mm 0.00 in0.0 mm 0.00 in0.0 mm
02:00 PM 81.9°F27.7°C 66.2°F19.0°C 59% 7.6 mph WNW12.2 kmh WNW 11.4 mph18.3 kmh 30.05 in1017.6 mb 0.00 in0.0 mm 0.00 in0.0 mm 0.00 in0.0 mm
02:05 PM 82.2°F27.9°C 66.0°F18.9°C 58% 9.8 mph WNW15.8 kmh WNW 12.1 mph19.5 kmh 30.05 in1017.6 mb 0.00 in0.0 mm 0.00 in0.0 mm 0.00 in0.0 mm
02:10 PM 82.2°F27.9°C 65.5°F18.6°C 57% 6.0 mph W9.7 kmh W 12.1 mph19.5 kmh 30.04 in1017.3 mb 0.00 in0.0 mm 0.00 in0.0 mm 0.00 in0.0 mm
02:15 PM 81.9°F27.7°C 66.2°F19.0°C 59% 8.3 mph W13.4 kmh W 12.1 mph19.5 kmh 30.04 in1017.3 mb 0.00 in0.0 mm 0.00 in0.0 mm 0.00 in0.0 mm
02:20 PM 81.9°F27.7°C 65.7°F18.7°C 58% 7.6 mph WNW12.2 kmh WNW 12.1 mph19.5 kmh 30.04 in1017.3 mb 0.00 in0.0 mm 0.00 in0.0 mm 0.00 in0.0 mm
02:25 PM 81.9°F27.7°C 65.2°F18.4°C 57% 5.4 mph WNW8.7 kmh WNW 12.1 mph19.5 kmh 30.04 in1017.3 mb 0.00 in0.0 mm 0.00 in0.0 mm 0.00 in0.0 mm
02:30 PM 82.2°F27.9°C 65.5°F18.6°C 57% 6.9 mph NW11.1 kmh NW 11.4 mph18.3 kmh 30.04 in1017.3 mb 0.00 in0.0 mm 0.00 in0.0 mm 0.00 in0.0 mm
02:35 PM 82.4°F28.0°C 65.7°F18.7°C 57% 4.5 mph W7.2 kmh W 11.4 mph18.3 kmh 30.04 in1017.3 mb 0.00 in0.0 mm 0.00 in0.0 mm 0.00 in0.0 mm
02:40 PM 82.9°F28.3°C 66.2°F19.0°C 57% 6.9 mph WSW11.1 kmh WSW 10.7 mph17.2 kmh 30.04 in1017.3 mb 0.00 in0.0 mm 0.00 in0.0 mm 0.00 in0.0 mm
02:45 PM 82.8°F28.2°C 65.5°F18.6°C 56% 6.9 mph W11.1 kmh W 12.1 mph19.5 kmh 30.04 in1017.3 mb 0.00 in0.0 mm 0.00 in0.0 mm 0.00 in0.0 mm
02:50 PM 82.8°F28.2°C 65.5°F18.6°C 56% 6.9 mph WNW11.1 kmh WNW 12.1 mph19.5 kmh 30.04 in1017.3 mb 0.00 in0.0 mm 0.00 in0.0 mm 0.00 in0.0 mm
02:55 PM 82.8°F28.2°C 65.5°F18.6°C 56% 6.9 mph NW11.1 kmh NW 10.7 mph17.2 kmh 30.04 in1017.3 mb 0.00 in0.0 mm 0.00 in0.0 mm 0.00 in0.0 mm
03:00 PM 82.9°F28.3°C 65.2°F18.4°C 55% 6.0 mph NW9.7 kmh NW 11.4 mph18.3 kmh 30.03 in1016.9 mb 0.00 in0.0 mm 0.00 in0.0 mm 0.00 in0.0 mm
03:05 PM 82.8°F28.2°C 65.0°F18.3°C 55% 6.9 mph NW11.1 kmh NW 11.4 mph18.3 kmh 30.03 in1016.9 mb 0.00 in0.0 mm 0.00 in0.0 mm 0.00 in0.0 mm
03:10 PM 82.9°F28.3°C 66.2°F19.0°C 57% 8.3 mph NW13.4 kmh NW 13.0 mph20.9 kmh 30.03 in1016.9 mb 0.00 in0.0 mm 0.00 in0.0 mm 0.00 in0.0 mm
03:15 PM 83.1°F28.4°C 65.3°F18.5°C 55% 13.6 mph NW21.9 kmh NW 15.9 mph25.6 kmh 30.03 in1016.9 mb 0.00 in0.0 mm 0.00 in0.0 mm 0.00 in0.0 mm
03:20 PM 82.9°F28.3°C 65.7°F18.7°C 56% 9.2 mph WNW14.8 kmh WNW 15.9 mph25.6 kmh 30.03 in1016.9 mb 0.00 in0.0 mm 0.00 in0.0 mm 0.00 in0.0 mm
03:25 PM 82.9°F28.3°C 65.2°F18.4°C 55% 7.6 mph NW12.2 kmh NW 15.9 mph25.6 kmh 30.03 in1016.9 mb 0.00 in0.0 mm 0.00 in0.0 mm 0.00 in0.0 mm
03:30 PM 82.9°F28.3°C 65.2°F18.4°C 55% 7.6 mph NW12.2 kmh NW 14.5 mph23.3 kmh 30.03 in1016.9 mb 0.00 in0.0 mm 0.00 in0.0 mm 0.00 in0.0 mm
03:35 PM 83.1°F28.4°C 65.3°F18.5°C 55% 5.4 mph NW8.7 kmh NW 14.5 mph23.3 kmh 30.03 in1016.9 mb 0.00 in0.0 mm 0.00 in0.0 mm 0.00 in0.0 mm
03:40 PM 83.1°F28.4°C 65.3°F18.5°C 55% 6.9 mph WNW11.1 kmh WNW 13.6 mph21.9 kmh 30.03 in1016.9 mb 0.00 in0.0 mm 0.00 in0.0 mm 0.00 in0.0 mm
03:45 PM 83.1°F28.4°C 65.3°F18.5°C 55% 8.3 mph WNW13.4 kmh WNW 13.6 mph21.9 kmh 30.03 in1016.9 mb 0.00 in0.0 mm 0.00 in0.0 mm 0.00 in0.0 mm
03:50 PM 82.9°F28.3°C 64.6°F18.1°C 54% 9.2 mph NW14.8 kmh NW 14.5 mph23.3 kmh 30.02 in1016.6 mb 0.00 in0.0 mm 0.00 in0.0 mm 0.00 in0.0 mm
03:55 PM 82.9°F28.3°C 64.6°F18.1°C 54% 10.7 mph NW17.2 kmh NW 15.9 mph25.6 kmh 30.02 in1016.6 mb 0.00 in0.0 mm 0.00 in0.0 mm 0.00 in0.0 mm
04:00 PM 82.8°F28.2°C 64.5°F18.1°C 54% 11.4 mph NW18.3 kmh NW 15.9 mph25.6 kmh 30.02 in1016.6 mb 0.00 in0.0 mm 0.00 in0.0 mm 0.00 in0.0 mm
04:05 PM 82.8°F28.2°C 64.5°F18.1°C 54% 11.4 mph NW18.3 kmh NW 16.8 mph27.0 kmh 30.02 in1016.6 mb 0.00 in0.0 mm 0.00 in0.0 mm 0.00 in0.0 mm
04:10 PM 82.8°F28.2°C 64.5°F18.1°C 54% 9.2 mph NW14.8 kmh NW 16.8 mph27.0 kmh 30.02 in1016.6 mb 0.00 in0.0 mm 0.00 in0.0 mm 0.00 in0.0 mm
04:15 PM 82.8°F28.2°C 63.9°F17.7°C 53% 8.3 mph NW13.4 kmh NW 18.3 mph29.5 kmh 30.02 in1016.6 mb 0.00 in0.0 mm 0.00 in0.0 mm 0.00 in0.0 mm
04:20 PM 82.4°F28.0°C 63.6°F17.6°C 53% 10.7 mph NW17.2 kmh NW 18.3 mph29.5 kmh 30.02 in1016.6 mb 0.00 in0.0 mm 0.00 in0.0 mm 0.00 in0.0 mm
04:25 PM 81.9°F27.7°C 63.6°F17.6°C 54% 8.3 mph NW13.4 kmh NW 18.3 mph29.5 kmh 30.02 in1016.6 mb 0.00 in0.0 mm 0.00 in0.0 mm 0.00 in0.0 mm
04:30 PM 82.0°F27.8°C 64.3°F17.9°C 55% 9.2 mph NW14.8 kmh NW 18.3 mph29.5 kmh 30.02 in1016.6 mb 0.00 in0.0 mm 0.00 in0.0 mm 0.00 in0.0 mm
04:35 PM 82.4°F28.0°C 64.7°F18.2°C 55% 9.8 mph NW15.8 kmh NW 16.8 mph27.0 kmh 30.02 in1016.6 mb 0.00 in0.0 mm 0.00 in0.0 mm 0.00 in0.0 mm
04:40 PM 82.4°F28.0°C 64.1°F17.8°C 54% 6.0 mph NW9.7 kmh NW 14.5 mph23.3 kmh 30.02 in1016.6 mb 0.00 in0.0 mm 0.00 in0.0 mm 0.00 in0.0 mm
04:45 PM 82.0°F27.8°C 63.8°F17.7°C 54% 11.4 mph NW18.3 kmh NW 18.3 mph29.5 kmh 30.02 in1016.6 mb 0.00 in0.0 mm 0.00 in0.0 mm 0.00 in0.0 mm
04:50 PM 81.9°F27.7°C 63.1°F17.3°C 53% 9.8 mph NW15.8 kmh NW 18.3 mph29.5 kmh 30.01 in1016.3 mb 0.00 in0.0 mm 0.00 in0.0 mm 0.00 in0.0 mm
04:55 PM 81.5°F27.5°C 63.3°F17.4°C 54% 10.7 mph WNW17.2 kmh WNW 19.0 mph30.6 kmh 30.01 in1016.3 mb 0.00 in0.0 mm 0.00 in0.0 mm 0.00 in0.0 mm
05:00 PM 81.5°F27.5°C 63.8°F17.7°C 55% 9.2 mph WNW14.8 kmh WNW 19.0 mph30.6 kmh 30.01 in1016.3 mb 0.00 in0.0 mm 0.00 in0.0 mm 0.00 in0.0 mm
05:05 PM 81.7°F27.6°C 63.5°F17.5°C 54% 10.7 mph WNW17.2 kmh WNW 18.3 mph29.5 kmh 30.01 in1016.3 mb 0.00 in0.0 mm 0.00 in0.0 mm 0.00 in0.0 mm
05:10 PM 81.3°F27.4°C 62.6°F17.0°C 53% 9.2 mph WNW14.8 kmh WNW 18.3 mph29.5 kmh 30.02 in1016.6 mb 0.00 in0.0 mm 0.00 in0.0 mm 0.00 in0.0 mm
05:15 PM 81.5°F27.5°C 63.8°F17.7°C 55% 12.1 mph NW19.5 kmh NW 18.3 mph29.5 kmh 30.01 in1016.3 mb 0.00 in0.0 mm 0.00 in0.0 mm 0.00 in0.0 mm
05:20 PM 81.3°F27.4°C 63.1°F17.3°C 54% 10.7 mph NW17.2 kmh NW 19.0 mph30.6 kmh 30.02 in1016.6 mb 0.00 in0.0 mm 0.00 in0.0 mm 0.00 in0.0 mm
05:25 PM 81.1°F27.3°C 63.0°F17.2°C 54% 9.2 mph NW14.8 kmh NW 19.0 mph30.6 kmh 30.01 in1016.3 mb 0.00 in0.0 mm 0.00 in0.0 mm 0.00 in0.0 mm
05:30 PM 79.9°F26.6°C 62.3°F16.8°C 55% 12.1 mph NW19.5 kmh NW 15.2 mph24.5 kmh 30.02 in1016.6 mb 0.00 in0.0 mm 0.00 in0.0 mm 0.00 in0.0 mm
05:35 PM 79.7°F26.5°C 62.7°F17.1°C 56% 8.3 mph NW13.4 kmh NW 15.2 mph24.5 kmh 30.01 in1016.3 mb 0.00 in0.0 mm 0.00 in0.0 mm 0.00 in0.0 mm
05:40 PM 80.4°F26.9°C 63.3°F17.4°C 56% 6.9 mph NW11.1 kmh NW 15.2 mph24.5 kmh 30.01 in1016.3 mb 0.00 in0.0 mm 0.00 in0.0 mm 0.00 in0.0 mm
05:45 PM 80.6°F27.0°C 63.0°F17.2°C 55% 6.9 mph NW11.1 kmh NW 14.5 mph23.3 kmh 30.01 in1016.3 mb 0.00 in0.0 mm 0.00 in0.0 mm 0.00 in0.0 mm
05:50 PM 81.0°F27.2°C 63.3°F17.4°C 55% 13.6 mph NW21.9 kmh NW 15.9 mph25.6 kmh 30.01 in1016.3 mb 0.00 in0.0 mm 0.00 in0.0 mm 0.00 in0.0 mm
05:55 PM 81.0°F27.2°C 63.3°F17.4°C 55% 8.3 mph NW13.4 kmh NW 15.9 mph25.6 kmh 30.01 in1016.3 mb 0.00 in0.0 mm 0.00 in0.0 mm 0.00 in0.0 mm
06:00 PM 81.0°F27.2°C 63.3°F17.4°C 55% 9.8 mph NW15.8 kmh NW 15.9 mph25.6 kmh 30.01 in1016.3 mb 0.00 in0.0 mm 0.00 in0.0 mm 0.00 in0.0 mm
06:05 PM 80.8°F27.1°C 62.1°F16.7°C 53% 13.0 mph NW20.9 kmh NW 17.4 mph28.0 kmh 30.01 in1016.3 mb 0.00 in0.0 mm 0.00 in0.0 mm 0.00 in0.0 mm
06:10 PM 80.1°F26.7°C 62.5°F16.9°C 55% 9.8 mph NW15.8 kmh NW 17.4 mph28.0 kmh 30.01 in1016.3 mb 0.00 in0.0 mm 0.00 in0.0 mm 0.00 in0.0 mm
06:15 PM 79.7°F26.5°C 62.1°F16.7°C 55% 12.1 mph NW19.5 kmh NW 17.4 mph28.0 kmh 30.02 in1016.6 mb 0.00 in0.0 mm 0.00 in0.0 mm 0.00 in0.0 mm
06:20 PM 79.3°F26.3°C 62.3°F16.8°C 56% 8.3 mph WNW13.4 kmh WNW 17.4 mph28.0 kmh 30.02 in1016.6 mb 0.00 in0.0 mm 0.00 in0.0 mm 0.00 in0.0 mm
06:25 PM 79.0°F26.1°C 62.0°F16.7°C 56% 7.6 mph NW12.2 kmh NW 15.9 mph25.6 kmh 30.02 in1016.6 mb 0.00 in0.0 mm 0.00 in0.0 mm 0.00 in0.0 mm
06:30 PM 78.1°F25.6°C 62.1°F16.7°C 58% 7.6 mph NW12.2 kmh NW 14.5 mph23.3 kmh 30.02 in1016.6 mb 0.00 in0.0 mm 0.00 in0.0 mm 0.00 in0.0 mm
06:35 PM 77.5°F25.3°C 62.1°F16.7°C 59% 7.6 mph NW12.2 kmh NW 13.6 mph21.9 kmh 30.01 in1016.3 mb 0.00 in0.0 mm 0.00 in0.0 mm 0.00 in0.0 mm
06:40 PM 77.7°F25.4°C 62.8°F17.1°C 60% 7.6 mph NW12.2 kmh NW 13.0 mph20.9 kmh 30.01 in1016.3 mb 0.00 in0.0 mm 0.00 in0.0 mm 0.00 in0.0 mm
06:45 PM 77.7°F25.4°C 62.3°F16.8°C 59% 6.0 mph NW9.7 kmh NW 13.6 mph21.9 kmh 30.01 in1016.3 mb 0.00 in0.0 mm 0.00 in0.0 mm 0.00 in0.0 mm
06:50 PM 77.5°F25.3°C 62.6°F17.0°C 60% 9.2 mph NW14.8 kmh NW 13.6 mph21.9 kmh 30.02 in1016.6 mb 0.00 in0.0 mm 0.00 in0.0 mm 0.00 in0.0 mm
06:55 PM 77.7°F25.4°C 62.3°F16.8°C 59% 6.0 mph WNW9.7 kmh WNW 13.6 mph21.9 kmh 30.02 in1016.6 mb 0.00 in0.0 mm 0.00 in0.0 mm 0.00 in0.0 mm
07:00 PM 77.5°F25.3°C 62.1°F16.7°C 59% 7.6 mph WNW12.2 kmh WNW 13.6 mph21.9 kmh 30.02 in1016.6 mb 0.00 in0.0 mm 0.00 in0.0 mm 0.00 in0.0 mm
07:05 PM 77.2°F25.1°C 62.3°F16.8°C 60% 8.3 mph NW13.4 kmh NW 11.4 mph18.3 kmh 30.02 in1016.6 mb 0.00 in0.0 mm 0.00 in0.0 mm 0.00 in0.0 mm
07:10 PM 77.2°F25.1°C 62.3°F16.8°C 60% 6.0 mph NW9.7 kmh NW 12.1 mph19.5 kmh 30.02 in1016.6 mb 0.00 in0.0 mm 0.00 in0.0 mm 0.00 in0.0 mm
07:15 PM 77.2°F25.1°C 62.3°F16.8°C 60% 6.9 mph NW11.1 kmh NW 12.1 mph19.5 kmh 30.02 in1016.6 mb 0.00 in0.0 mm 0.00 in0.0 mm 0.00 in0.0 mm
07:20 PM 76.8°F24.9°C 62.9°F17.2°C 62% 6.0 mph NW9.7 kmh NW 11.4 mph18.3 kmh 30.03 in1016.9 mb 0.00 in0.0 mm 0.00 in0.0 mm 0.00 in0.0 mm
07:25 PM 76.5°F24.7°C 62.5°F16.9°C 62% 7.6 mph NW12.2 kmh NW 11.4 mph18.3 kmh 30.02 in1016.6 mb 0.00 in0.0 mm 0.00 in0.0 mm 0.00 in0.0 mm
07:30 PM 76.1°F24.5°C 62.2°F16.8°C 62% 6.0 mph WNW9.7 kmh WNW 12.1 mph19.5 kmh 30.02 in1016.6 mb 0.00 in0.0 mm 0.00 in0.0 mm 0.00 in0.0 mm
07:35 PM 75.9°F24.4°C 62.5°F16.9°C 63% 4.5 mph WNW7.2 kmh WNW 12.1 mph19.5 kmh 30.02 in1016.6 mb 0.00 in0.0 mm 0.00 in0.0 mm 0.00 in0.0 mm
07:40 PM 75.9°F24.4°C 62.5°F16.9°C 63% 6.9 mph NW11.1 kmh NW 12.1 mph19.5 kmh 30.02 in1016.6 mb 0.00 in0.0 mm 0.00 in0.0 mm 0.00 in0.0 mm
07:45 PM 75.9°F24.4°C 62.0°F16.7°C 62% 3.1 mph NW5.0 kmh NW 12.1 mph19.5 kmh 30.02 in1016.6 mb 0.00 in0.0 mm 0.00 in0.0 mm 0.00 in0.0 mm
07:50 PM 75.9°F24.4°C 62.5°F16.9°C 63% 4.5 mph NW7.2 kmh NW 12.1 mph19.5 kmh 30.02 in1016.6 mb 0.00 in0.0 mm 0.00 in0.0 mm 0.00 in0.0 mm
07:55 PM 75.9°F24.4°C 62.5°F16.9°C 63% 6.0 mph NW9.7 kmh NW 11.4 mph18.3 kmh 30.02 in1016.6 mb 0.00 in0.0 mm 0.00 in0.0 mm 0.00 in0.0 mm
08:00 PM 75.6°F24.2°C 62.1°F16.7°C 63% 2.2 mph WNW3.5 kmh WNW 11.4 mph18.3 kmh 30.02 in1016.6 mb 0.00 in0.0 mm 0.00 in0.0 mm 0.00 in0.0 mm
08:05 PM 75.4°F24.1°C 61.9°F16.6°C 63% 8.3 mph NW13.4 kmh NW 11.4 mph18.3 kmh 30.02 in1016.6 mb 0.00 in0.0 mm 0.00 in0.0 mm 0.00 in0.0 mm
08:10 PM 75.0°F23.9°C 62.5°F16.9°C 65% 6.0 mph NW9.7 kmh NW 11.4 mph18.3 kmh 30.03 in1016.9 mb 0.00 in0.0 mm 0.00 in0.0 mm 0.00 in0.0 mm
08:15 PM 74.7°F23.7°C 61.7°F16.5°C 64% 4.5 mph WNW7.2 kmh WNW 10.7 mph17.2 kmh 30.03 in1016.9 mb 0.00 in0.0 mm 0.00 in0.0 mm 0.00 in0.0 mm
08:20 PM 74.3°F23.5°C 61.8°F16.6°C 65% 6.9 mph WNW11.1 kmh WNW 10.7 mph17.2 kmh 30.03 in1016.9 mb 0.00 in0.0 mm 0.00 in0.0 mm 0.00 in0.0 mm
08:25 PM 74.1°F23.4°C 61.6°F16.4°C 65% 6.9 mph WNW11.1 kmh WNW 9.8 mph15.8 kmh 30.03 in1016.9 mb 0.00 in0.0 mm 0.00 in0.0 mm 0.00 in0.0 mm
08:30 PM 73.6°F23.1°C 61.1°F16.2°C 65% 4.5 mph WNW7.2 kmh WNW 12.1 mph19.5 kmh 30.03 in1016.9 mb 0.00 in0.0 mm 0.00 in0.0 mm 0.00 in0.0 mm
08:35 PM 73.4°F23.0°C 61.0°F16.1°C 65% 3.8 mph W6.1 kmh W 12.1 mph19.5 kmh 30.03 in1016.9 mb 0.00 in0.0 mm 0.00 in0.0 mm 0.00 in0.0 mm
08:40 PM 73.0°F22.8°C 60.2°F15.7°C 64% 5.4 mph WSW8.7 kmh WSW 9.2 mph14.8 kmh 30.03 in1016.9 mb 0.00 in0.0 mm 0.00 in0.0 mm 0.00 in0.0 mm
08:45 PM 72.7°F22.6°C 60.3°F15.7°C 65% 3.1 mph WSW5.0 kmh WSW 9.2 mph14.8 kmh 30.04 in1017.3 mb 0.00 in0.0 mm 0.00 in0.0 mm 0.00 in0.0 mm
08:50 PM 72.3°F22.4°C 59.9°F15.5°C 65% 3.1 mph W5.0 kmh W 9.2 mph14.8 kmh 30.04 in1017.3 mb 0.00 in0.0 mm 0.00 in0.0 mm 0.00 in0.0 mm
08:55 PM 72.0°F22.2°C 60.0°F15.6°C 66% 3.1 mph W5.0 kmh W 9.2 mph14.8 kmh 30.04 in1017.3 mb 0.00 in0.0 mm 0.00 in0.0 mm 0.00 in0.0 mm
09:00 PM 71.8°F22.1°C 59.8°F15.4°C 66% 1.6 mph W2.6 kmh W 6.0 mph9.7 kmh 30.04 in1017.3 mb 0.00 in0.0 mm 0.00 in0.0 mm 0.00 in0.0 mm
09:05 PM 71.4°F21.9°C 59.9°F15.5°C 67% 0.7 mph WSW1.1 kmh WSW 6.0 mph9.7 kmh 30.05 in1017.6 mb 0.00 in0.0 mm 0.00 in0.0 mm 0.00 in0.0 mm
09:10 PM 71.2°F21.8°C 60.2°F15.7°C 68% 2.2 mph SW3.5 kmh SW 5.4 mph8.7 kmh 30.05 in1017.6 mb 0.00 in0.0 mm 0.00 in0.0 mm 0.00 in0.0 mm
09:15 PM 71.1°F21.7°C 60.0°F15.6°C 68% 2.2 mph SW3.5 kmh SW 4.5 mph7.2 kmh 30.05 in1017.6 mb 0.00 in0.0 mm 0.00 in0.0 mm 0.00 in0.0 mm
09:20 PM 70.7°F21.5°C 59.6°F15.3°C 68% 1.6 mph SW2.6 kmh SW 4.5 mph7.2 kmh 30.05 in1017.6 mb 0.00 in0.0 mm 0.00 in0.0 mm 0.00 in0.0 mm
09:25 PM 70.5°F21.4°C 59.5°F15.3°C 68% 2.2 mph SW3.5 kmh SW 6.0 mph9.7 kmh 30.06 in1017.9 mb 0.00 in0.0 mm 0.00 in0.0 mm 0.00 in0.0 mm
09:30 PM 70.3°F21.3°C 59.7°F15.4°C 69% 1.6 mph WSW2.6 kmh WSW 6.0 mph9.7 kmh 30.06 in1017.9 mb 0.00 in0.0 mm 0.00 in0.0 mm 0.00 in0.0 mm
09:35 PM 70.2°F21.2°C 59.5°F15.3°C 69% 2.2 mph SW3.5 kmh SW 5.4 mph8.7 kmh 30.07 in1018.3 mb 0.00 in0.0 mm 0.00 in0.0 mm 0.00 in0.0 mm
09:40 PM 70.0°F21.1°C 59.4°F15.2°C 69% 3.1 mph SW5.0 kmh SW 5.4 mph8.7 kmh 30.07 in1018.3 mb 0.00 in0.0 mm 0.00 in0.0 mm 0.00 in0.0 mm
09:45 PM 69.8°F21.0°C 59.6°F15.3°C 70% 3.8 mph WSW6.1 kmh WSW 6.9 mph11.1 kmh 30.07 in1018.3 mb 0.00 in0.0 mm 0.00 in0.0 mm 0.00 in0.0 mm
09:50 PM 69.8°F21.0°C 59.6°F15.3°C 70% 1.6 mph WSW2.6 kmh WSW 6.9 mph11.1 kmh 30.07 in1018.3 mb 0.00 in0.0 mm 0.00 in0.0 mm 0.00 in0.0 mm
09:55 PM 69.6°F20.9°C 60.2°F15.7°C 72% 3.8 mph WNW6.1 kmh WNW 5.4 mph8.7 kmh 30.07 in1018.3 mb 0.00 in0.0 mm 0.00 in0.0 mm 0.00 in0.0 mm
10:00 PM 69.4°F20.8°C 60.0°F15.6°C 72% 3.1 mph NW5.0 kmh NW 5.4 mph8.7 kmh 30.08 in1018.6 mb 0.00 in0.0 mm 0.00 in0.0 mm 0.00 in0.0 mm
10:05 PM 69.1°F20.6°C 59.7°F15.4°C 72% 2.2 mph W3.5 kmh W 5.4 mph8.7 kmh 30.08 in1018.6 mb 0.00 in0.0 mm 0.00 in0.0 mm 0.00 in0.0 mm
10:10 PM 68.9°F20.5°C 59.9°F15.5°C 73% Calm Calm 3.8 mph6.1 kmh 30.08 in1018.6 mb 0.00 in0.0 mm 0.00 in0.0 mm 0.00 in0.0 mm
10:15 PM 68.9°F20.5°C 59.9°F15.5°C 73% Calm Calm 2.2 mph3.5 kmh 30.08 in1018.6 mb 0.00 in0.0 mm 0.00 in0.0 mm 0.00 in0.0 mm
10:20 PM 68.5°F20.3°C 59.6°F15.3°C 73% 0.7 mph SW1.1 kmh SW 3.1 mph5.0 kmh 30.08 in1018.6 mb 0.00 in0.0 mm 0.00 in0.0 mm 0.00 in0.0 mm
10:25 PM 68.5°F20.3°C 59.6°F15.3°C 73% 2.2 mph SW3.5 kmh SW 3.8 mph6.1 kmh 30.09 in1019.0 mb 0.00 in0.0 mm 0.00 in0.0 mm 0.00 in0.0 mm
10:30 PM 68.4°F20.2°C 59.8°F15.4°C 74% 1.6 mph SW2.6 kmh SW 3.8 mph6.1 kmh 30.09 in1019.0 mb 0.00 in0.0 mm 0.00 in0.0 mm 0.00 in0.0 mm
10:35 PM 68.4°F20.2°C 59.8°F15.4°C 74% 2.2 mph SSW3.5 kmh SSW 5.4 mph8.7 kmh 30.09 in1019.0 mb 0.00 in0.0 mm 0.00 in0.0 mm 0.00 in0.0 mm
10:40 PM 68.2°F20.1°C 59.6°F15.3°C 74% Calm Calm 5.4 mph8.7 kmh 30.09 in1019.0 mb 0.00 in0.0 mm 0.00 in0.0 mm 0.00 in0.0 mm
10:45 PM 68.0°F20.0°C 59.4°F15.2°C 74% 2.2 mph S3.5 kmh S 5.4 mph8.7 kmh 30.09 in1019.0 mb 0.00 in0.0 mm 0.00 in0.0 mm 0.00 in0.0 mm
10:50 PM 67.8°F19.9°C 59.6°F15.3°C 75% 1.6 mph S2.6 kmh S 5.4 mph8.7 kmh 30.09 in1019.0 mb 0.00 in0.0 mm 0.00 in0.0 mm 0.00 in0.0 mm
10:55 PM 67.6°F19.8°C 59.8°F15.4°C 76% 2.2 mph S3.5 kmh S 5.4 mph8.7 kmh 30.09 in1019.0 mb 0.00 in0.0 mm 0.00 in0.0 mm 0.00 in0.0 mm
11:00 PM 67.5°F19.7°C 59.7°F15.4°C 76% 0.7 mph SSW1.1 kmh SSW 5.4 mph8.7 kmh 30.09 in1019.0 mb 0.00 in0.0 mm 0.00 in0.0 mm 0.00 in0.0 mm
11:05 PM 67.3°F19.6°C 59.5°F15.3°C 76% 2.2 mph SSW3.5 kmh SSW 3.8 mph6.1 kmh 30.09 in1019.0 mb 0.00 in0.0 mm 0.00 in0.0 mm 0.00 in0.0 mm
11:10 PM 66.9°F19.4°C 59.1°F15.1°C 76% 4.5 mph S7.2 kmh S 5.4 mph8.7 kmh 30.09 in1019.0 mb 0.00 in0.0 mm 0.00 in0.0 mm 0.00 in0.0 mm
11:15 PM 66.7°F19.3°C 59.3°F15.2°C 77% 6.0 mph SSW9.7 kmh SSW 6.9 mph11.1 kmh 30.09 in1019.0 mb 0.00 in0.0 mm 0.00 in0.0 mm 0.00 in0.0 mm
11:20 PM 66.6°F19.2°C 59.1°F15.1°C 77% 1.6 mph SSW2.6 kmh SSW 6.9 mph11.1 kmh 30.09 in1019.0 mb 0.00 in0.0 mm 0.00 in0.0 mm 0.00 in0.0 mm
11:25 PM 66.6°F19.2°C 59.1°F15.1°C 77% Calm Calm 6.9 mph11.1 kmh 30.09 in1019.0 mb 0.00 in0.0 mm 0.00 in0.0 mm 0.00 in0.0 mm
11:30 PM 66.2°F19.0°C 58.8°F14.9°C 77% 3.1 mph S5.0 kmh S 5.4 mph8.7 kmh 30.09 in1019.0 mb 0.00 in0.0 mm 0.00 in0.0 mm 0.00 in0.0 mm
11:35 PM 66.0°F18.9°C 59.3°F15.2°C 79% 2.2 mph S3.5 kmh S 6.9 mph11.1 kmh 30.09 in1019.0 mb 0.00 in0.0 mm 0.00 in0.0 mm 0.00 in0.0 mm
11:40 PM 65.8°F18.8°C 59.2°F15.1°C 79% 2.2 mph S3.5 kmh S 6.9 mph11.1 kmh 30.09 in1019.0 mb 0.00 in0.0 mm 0.00 in0.0 mm 0.00 in0.0 mm
11:45 PM 65.7°F18.7°C 59.0°F15.0°C 79% 2.2 mph S3.5 kmh S 4.5 mph7.2 kmh 30.08 in1018.6 mb 0.00 in0.0 mm 0.00 in0.0 mm 0.00 in0.0 mm
11:50 PM 65.3°F18.5°C 59.0°F15.0°C 80% Calm Calm 3.8 mph6.1 kmh 30.08 in1018.6 mb 0.00 in0.0 mm 0.00 in0.0 mm 0.00 in0.0 mm
11:55 PM 65.1°F18.4°C 58.8°F14.9°C 80% 1.6 mph SW2.6 kmh SW 3.8 mph6.1 kmh 30.08 in1018.6 mb 0.00 in0.0 mm 0.00 in0.0 mm 0.00 in0.0 mm